Time;durP1;ratioP1;P1;durP2;ratioP2;P2;SDS_P1;SDS_P2;PMS_P1;PMS_P2;Temp;Humidity;BMP_temperature;BMP_pressure;BME280_temperature;BME280_humidity;BME280_pressure;Samples;Min_cycle;Max_cycle;Signal;HPM_P1;HPM_P2
2022/04/22 00:01:17;;;;;;;2.85;2.30;;;10.80;99.90;;;;;;5081295;28;20044;-80
2022/04/22 00:03:43;;;;;;;13.73;2.45;;;10.80;99.90;;;;;;5081035;28;20048;-80
2022/04/22 00:06:09;;;;;;;4.35;3.50;;;10.80;99.90;;;;;;5062436;28;20047;-80
2022/04/22 00:08:35;;;;;;;4.13;2.70;;;10.80;99.90;;;;;;5081392;28;20394;-81
2022/04/22 00:13:45;;;;;;;9.68;2.85;;;10.70;99.90;;;;;;5079991;28;20051;-80
2022/04/22 00:16:11;;;;;;;3.55;3.25;;;10.70;99.90;;;;;;5081070;28;20040;-81
2022/04/22 00:18:37;;;;;;;3.83;3.30;;;10.70;99.90;;;;;;5081385;28;20039;-80
2022/04/22 00:21:03;;;;;;;3.55;2.90;;;10.70;99.90;;;;;;5080873;28;20040;-81
2022/04/22 00:23:29;;;;;;;4.40;3.25;;;10.60;99.90;;;;;;5081430;28;20040;-80
2022/04/22 00:25:55;;;;;;;8.77;3.38;;;10.60;99.90;;;;;;5081430;28;20040;-80
2022/04/22 00:28:21;;;;;;;8.27;4.07;;;10.60;99.90;;;;;;5079685;28;20052;-80
2022/04/22 00:30:47;;;;;;;3.15;2.70;;;10.60;99.90;;;;;;5084283;28;20245;-80
2022/04/22 00:33:14;;;;;;;8.32;4.05;;;10.50;99.90;;;;;;5083919;28;20490;-80
2022/04/22 00:35:40;;;;;;;10.43;3.55;;;10.50;99.90;;;;;;5084821;28;20044;-80
2022/04/22 00:38:06;;;;;;;5.55;3.00;;;10.50;99.90;;;;;;5084371;28;20529;-81
2022/04/22 00:40:32;;;;;;;2.88;2.67;;;10.50;99.90;;;;;;5066131;28;20083;-80
2022/04/22 00:42:57;;;;;;;3.28;2.95;;;10.50;99.90;;;;;;5085722;28;20072;-80
2022/04/22 00:45:23;;;;;;;6.45;3.33;;;10.40;99.90;;;;;;5083678;28;20044;-80
2022/04/22 00:47:48;;;;;;;2.72;2.53;;;10.40;99.90;;;;;;5084879;28;20544;-81
2022/04/22 00:50:14;;;;;;;4.25;3.08;;;10.40;99.90;;;;;;5083433;28;20056;-81
2022/04/22 00:52:40;;;;;;;4.35;2.70;;;10.40;99.90;;;;;;5084884;28;20036;-80
2022/04/22 00:55:08;;;;;;;5.03;3.72;;;10.40;99.90;;;;;;5083145;28;20060;-81
2022/04/22 00:57:33;;;;;;;6.20;3.47;;;10.40;99.90;;;;;;5083630;28;20036;-80
2022/04/22 00:59:59;;;;;;;5.00;3.65;;;10.30;99.90;;;;;;5084032;28;20050;-81
2022/04/22 01:02:25;;;;;;;5.50;3.75;;;10.30;99.90;;;;;;5083997;28;20414;-80
2022/04/22 01:10:20;;;;;;;5.32;3.40;;;10.30;99.90;;;;;;5064163;28;20048;-89
2022/04/22 01:12:46;;;;;;;2.70;2.40;;;10.30;99.90;;;;;;5065040;28;20052;-88
2022/04/22 01:15:11;;;;;;;4.75;3.55;;;10.20;99.90;;;;;;5045761;28;20052;-89
2022/04/22 01:17:37;;;;;;;6.00;4.07;;;10.20;99.90;;;;;;5063295;28;20124;-88
2022/04/22 01:20:04;;;;;;;6.97;4.00;;;10.20;99.90;;;;;;5064174;28;20445;-88
2022/04/22 01:22:30;;;;;;;4.32;3.75;;;10.20;99.90;;;;;;5064768;28;20152;-89
2022/04/22 01:24:59;;;;;;;8.68;3.13;;;10.20;99.90;;;;;;5064897;28;20493;-88
2022/04/22 01:27:29;;;;;;;6.43;3.55;;;10.20;99.90;;;;;;5064400;28;20052;-88
2022/04/22 01:29:55;;;;;;;9.73;4.28;;;10.10;99.90;;;;;;5063427;28;20051;-89
2022/04/22 01:32:21;;;;;;;5.47;3.35;;;10.10;99.90;;;;;;5064017;28;20068;-88
2022/04/22 01:34:46;;;;;;;3.63;3.30;;;10.10;99.90;;;;;;5063884;28;20157;-89
2022/04/22 01:37:12;;;;;;;6.38;3.85;;;10.10;99.90;;;;;;5063111;28;20052;-89
2022/04/22 01:39:37;;;;;;;11.32;3.58;;;10.00;99.90;;;;;;5064321;28;20044;-88
2022/04/22 01:42:04;;;;;;;5.97;3.53;;;10.00;99.90;;;;;;5063417;28;20090;-90
2022/04/22 01:44:29;;;;;;;3.95;2.60;;;10.00;99.90;;;;;;5063571;28;20040;-86
2022/04/22 01:46:55;;;;;;;5.40;3.38;;;10.00;99.90;;;;;;5063883;28;20081;-89
2022/04/22 01:49:21;;;;;;;3.42;3.10;;;10.00;99.90;;;;;;5063366;28;20040;-89
2022/04/22 01:51:46;;;;;;;9.88;3.42;;;9.90;99.90;;;;;;5064410;28;20091;-89
2022/04/22 01:54:12;;;;;;;7.88;3.80;;;9.90;99.90;;;;;;5063729;28;20079;-89
2022/04/22 01:56:38;;;;;;;5.85;3.58;;;9.90;99.90;;;;;;5063424;28;20052;-89
2022/04/22 01:59:03;;;;;;;8.07;3.90;;;9.90;99.90;;;;;;5062408;28;20513;-88
2022/04/22 02:01:29;;;;;;;2.70;2.47;;;9.90;99.90;;;;;;5064283;28;20044;-89
2022/04/22 02:03:55;;;;;;;4.85;3.65;;;9.90;99.90;;;;;;5063646;28;20483;-88
2022/04/22 02:06:21;;;;;;;6.13;3.63;;;9.90;99.90;;;;;;5063469;28;20040;-89
2022/04/22 02:08:46;;;;;;;3.40;3.03;;;9.80;99.90;;;;;;5063600;28;20052;-88
2022/04/22 02:11:13;;;;;;;3.88;3.00;;;9.80;99.90;;;;;;5045460;28;20120;-89
2022/04/22 02:13:38;;;;;;;4.30;3.50;;;9.80;99.90;;;;;;5062599;28;20653;-88
2022/04/22 02:16:08;;;;;;;3.10;2.72;;;9.80;99.90;;;;;;5063427;28;20052;-89
2022/04/22 02:18:36;;;;;;;5.53;4.07;;;9.80;99.90;;;;;;5063355;28;20086;-89
2022/04/22 02:21:04;;;;;;;3.45;3.15;;;9.70;99.90;;;;;;5063565;28;20040;-89
2022/04/22 02:23:29;;;;;;;3.88;3.50;;;9.70;99.90;;;;;;5045782;28;20072;-89
2022/04/22 02:25:55;;;;;;;3.55;3.22;;;9.70;99.90;;;;;;5063312;28;20072;-88
2022/04/22 02:28:39;;;;;;;6.10;3.83;;;9.70;99.90;;;;;;5061914;28;20033;-89
2022/04/22 02:31:11;;;;;;;4.32;3.05;;;9.60;99.90;;;;;;5045073;28;20048;-89
2022/04/22 02:33:38;;;;;;;5.22;3.88;;;9.60;99.90;;;;;;5063447;28;20040;-88
2022/04/22 02:36:06;;;;;;;3.83;2.90;;;9.60;99.90;;;;;;5062739;28;20079;-88
2022/04/22 02:38:32;;;;;;;4.90;3.70;;;9.50;99.90;;;;;;5062869;28;20483;-88
2022/04/22 02:46:29;;;;;;;8.10;3.65;;;9.50;99.90;;;;;;5054451;28;20054;-87
2022/04/22 02:49:00;;;;;;;4.95;3.40;;;9.50;99.90;;;;;;5062501;28;20052;-89
2022/04/22 02:51:26;;;;;;;3.85;3.55;;;9.50;99.90;;;;;;5062548;28;20497;-89
2022/04/22 02:53:53;;;;;;;8.73;3.58;;;9.50;99.90;;;;;;5062585;28;20059;-88
2022/04/22 02:56:19;;;;;;;3.45;2.63;;;9.50;99.90;;;;;;5062428;28;20457;-88
2022/04/22 02:58:45;;;;;;;2.85;2.65;;;9.50;99.90;;;;;;5061806;28;20032;-89
2022/04/22 03:01:11;;;;;;;3.70;2.92;;;9.40;99.90;;;;;;5062771;28;20040;-89
2022/04/22 03:03:37;;;;;;;2.80;2.55;;;9.40;99.90;;;;;;5062211;28;20463;-89
2022/04/22 03:06:03;;;;;;;6.90;3.22;;;9.40;99.90;;;;;;5062246;28;20036;-89
2022/04/22 03:08:28;;;;;;;3.33;2.65;;;9.40;99.90;;;;;;5062525;28;20540;-89
2022/04/22 03:10:54;;;;;;;4.35;2.47;;;9.30;99.90;;;;;;5062861;28;20080;-89
2022/04/22 03:13:19;;;;;;;1.88;1.77;;;9.30;99.90;;;;;;5051808;28;20123;-89
2022/04/22 03:15:45;;;;;;;2.42;2.22;;;9.30;99.90;;;;;;5062362;28;20033;-89
2022/04/22 03:18:11;;;;;;;3.75;2.55;;;9.30;99.90;;;;;;5062198;28;20412;-89
2022/04/22 03:20:37;;;;;;;3.30;2.45;;;9.30;99.90;;;;;;5061419;28;20394;-89
2022/04/22 03:23:03;;;;;;;4.25;3.42;;;9.30;99.90;;;;;;5044016;28;20080;-89
2022/04/22 03:25:28;;;;;;;5.65;2.90;;;9.30;99.90;;;;;;5062886;28;20049;-89
2022/04/22 03:27:54;;;;;;;3.63;2.85;;;9.20;99.90;;;;;;5043676;28;20044;-90
2022/04/22 03:30:20;;;;;;;5.32;2.70;;;9.20;99.90;;;;;;5061936;28;20044;-90
2022/04/22 03:32:45;;;;;;;8.90;3.50;;;9.20;99.90;;;;;;5044265;28;20071;-89
2022/04/22 03:35:11;;;;;;;6.57;2.15;;;9.20;99.90;;;;;;5062060;28;20045;-89
2022/04/22 03:37:37;;;;;;;5.70;3.28;;;9.20;99.90;;;;;;5061935;28;20055;-89
2022/04/22 03:40:03;;;;;;;3.45;3.13;;;9.10;99.90;;;;;;5043781;28;20048;-88
2022/04/22 03:42:29;;;;;;;4.68;3.22;;;9.10;99.90;;;;;;5027940;28;20155;-89
2022/04/22 03:44:58;;;;;;;7.32;3.47;;;9.10;99.90;;;;;;5061854;28;20516;-89
2022/04/22 03:47:24;;;;;;;8.70;3.03;;;9.10;99.90;;;;;;5060285;28;20427;-90
2022/04/22 03:49:50;;;;;;;2.50;2.30;;;9.10;99.90;;;;;;5061417;28;20043;-89
2022/04/22 03:52:15;;;;;;;6.43;2.90;;;9.00;99.90;;;;;;5061342;28;20126;-89
2022/04/22 03:54:41;;;;;;;4.00;3.00;;;9.00;99.90;;;;;;5061983;28;20144;-89
2022/04/22 03:59:51;;;;;;;9.98;3.63;;;9.00;99.90;;;;;;5061184;28;20136;-89
2022/04/22 04:02:16;;;;;;;4.78;2.42;;;9.00;99.90;;;;;;5061322;28;20119;-89
2022/04/22 04:04:42;;;;;;;2.88;1.90;;;8.90;99.90;;;;;;5061582;28;20036;-89
2022/04/22 04:07:07;;;;;;;3.75;3.35;;;8.90;99.90;;;;;;5060453;28;20084;-89
2022/04/22 04:17:45;;;;;;;5.82;3.53;;;8.80;99.90;;;;;;5061475;28;20048;-89
2022/04/22 04:25:40;;;;;;;1.83;1.73;;;8.80;99.90;;;;;;5041162;28;20052;-88
2022/04/22 04:28:11;;;;;;;3.28;2.83;;;8.80;99.90;;;;;;5039132;28;20118;-89
2022/04/22 04:30:38;;;;;;;7.97;3.43;;;8.70;99.90;;;;;;5024070;28;20060;-88
2022/04/22 04:33:04;;;;;;;2.28;2.17;;;8.70;99.90;;;;;;5040489;28;20793;-90
2022/04/22 04:35:30;;;;;;;5.40;2.00;;;8.70;99.90;;;;;;5042035;28;20099;-90
2022/04/22 04:37:56;;;;;;;4.20;1.80;;;8.70;99.90;;;;;;5024535;28;20045;-90
2022/04/22 04:40:21;;;;;;;4.53;1.77;;;8.70;99.90;;;;;;5055492;28;20048;-90
2022/04/22 04:42:53;;;;;;;2.58;2.38;;;8.70;99.90;;;;;;5060703;28;20041;-92
2022/04/22 04:45:20;;;;;;;2.83;2.17;;;8.70;99.90;;;;;;5061100;28;20051;-90
2022/04/22 04:47:45;;;;;;;8.57;2.10;;;8.70;99.90;;;;;;5061351;28;20090;-92
2022/04/22 04:50:12;;;;;;;2.60;2.45;;;8.60;99.90;;;;;;5060873;28;20458;-93
2022/04/22 04:52:39;;;;;;;2.15;2.03;;;8.60;99.90;;;;;;5061994;28;20048;-93
2022/04/22 04:55:06;;;;;;;5.32;3.38;;;8.60;99.90;;;;;;5062262;28;20044;-93
2022/04/22 04:57:32;;;;;;;3.25;1.85;;;8.60;99.90;;;;;;5061212;28;20037;-92
2022/04/22 04:59:57;;;;;;;4.13;2.55;;;8.60;99.90;;;;;;5040801;28;20099;-85
2022/04/22 05:02:23;;;;;;;3.70;2.15;;;8.60;99.90;;;;;;5022380;28;20364;-89
2022/04/22 05:04:48;;;;;;;8.02;2.28;;;8.60;99.90;;;;;;5026493;28;20037;-87
2022/04/22 05:07:14;;;;;;;3.47;2.75;;;8.60;99.90;;;;;;5059495;28;20490;-88
2022/04/22 05:09:39;;;;;;;6.95;2.42;;;8.60;99.90;;;;;;5059596;28;20032;-87
2022/04/22 05:12:05;;;;;;;3.33;3.05;;;8.60;99.90;;;;;;5060440;28;20557;-86
2022/04/22 05:14:31;;;;;;;9.82;2.75;;;8.60;99.90;;;;;;5060526;28;20437;-88
2022/04/22 05:16:57;;;;;;;2.08;1.90;;;8.60;99.90;;;;;;5064362;28;20040;-87
2022/04/22 05:19:22;;;;;;;2.03;1.88;;;8.60;99.90;;;;;;5064258;28;20093;-87
2022/04/22 05:21:49;;;;;;;2.40;2.28;;;8.60;99.90;;;;;;5063805;28;20036;-87
2022/04/22 05:24:15;;;;;;;1.73;1.35;;;8.60;99.90;;;;;;5064097;28;20714;-88
2022/04/22 05:26:41;;;;;;;3.63;1.77;;;8.60;99.90;;;;;;5046887;28;20431;-88
2022/04/22 05:32:36;;;;;;;3.28;1.60;;;8.60;99.90;;;;;;5062614;28;20112;-88
2022/04/22 05:34:36;;;;;;;2.38;1.98;;;8.60;99.90;;;;;;5063657;28;20053;-87
2022/04/22 05:37:02;;;;;;;4.30;1.70;;;8.60;99.90;;;;;;5063936;28;20093;-87
2022/04/22 05:39:28;;;;;;;7.63;2.40;;;8.60;99.90;;;;;;5045338;28;20041;-88
2022/04/22 05:41:54;;;;;;;4.82;2.05;;;8.70;99.90;;;;;;5045883;28;20057;-87
2022/04/22 05:44:19;;;;;;;3.08;1.48;;;8.70;99.90;;;;;;5043659;28;20044;-89
2022/04/22 05:46:45;;;;;;;1.48;1.35;;;8.70;99.90;;;;;;5054305;28;20072;-87
2022/04/22 05:49:10;;;;;;;10.13;2.10;;;8.70;99.90;;;;;;5027467;28;20041;-84
2022/04/22 05:51:36;;;;;;;4.13;2.75;;;8.70;99.90;;;;;;5063607;28;20051;-87
2022/04/22 05:54:02;;;;;;;1.70;1.60;;;8.70;99.90;;;;;;5068305;28;20032;-94
2022/04/22 05:56:29;;;;;;;1.50;1.40;;;8.70;99.90;;;;;;5046819;28;20055;-89
2022/04/22 05:58:55;;;;;;;4.43;1.95;;;8.70;99.90;;;;;;5027980;28;20044;-89
2022/04/22 06:01:22;;;;;;;2.60;2.40;;;8.80;99.90;;;;;;5040775;28;20123;-79
2022/04/22 06:03:48;;;;;;;2.17;1.67;;;8.80;99.90;;;;;;5063282;28;20482;-80
2022/04/22 06:06:14;;;;;;;2.85;1.92;;;8.80;99.90;;;;;;5063185;28;20044;-79
2022/04/22 06:11:24;;;;;;;2.67;1.63;;;8.80;99.90;;;;;;5063106;28;20136;-79
2022/04/22 06:13:49;;;;;;;3.17;1.60;;;8.80;99.90;;;;;;5061795;28;20115;-79
2022/04/22 06:16:15;;;;;;;1.73;1.45;;;8.80;99.90;;;;;;5063109;28;20105;-79
2022/04/22 06:18:40;;;;;;;0.90;0.90;;;8.90;99.90;;;;;;5063005;28;20387;-79
2022/04/22 06:21:06;;;;;;;2.53;1.52;;;8.90;99.90;;;;;;5045067;28;20047;-79
2022/04/22 06:23:32;;;;;;;3.95;1.98;;;8.90;99.90;;;;;;5063003;28;20045;-79
2022/04/22 06:25:57;;;;;;;3.75;1.83;;;8.90;99.90;;;;;;5063209;28;20043;-79
2022/04/22 06:28:23;;;;;;;1.95;1.38;;;8.90;99.90;;;;;;5060579;28;20485;-79
2022/04/22 06:30:49;;;;;;;1.35;1.25;;;9.00;99.90;;;;;;5062902;28;20044;-79
2022/04/22 06:33:16;;;;;;;3.22;2.33;;;9.00;99.90;;;;;;5062643;28;20396;-79
2022/04/22 06:35:42;;;;;;;5.80;1.80;;;9.00;99.90;;;;;;5062767;28;20052;-79
2022/04/22 06:38:08;;;;;;;3.90;1.90;;;9.00;99.90;;;;;;5062566;28;20045;-80
2022/04/22 06:46:03;;;;;;;2.95;2.13;;;9.10;99.90;;;;;;5062215;28;20128;-80
2022/04/22 06:48:30;;;;;;;2.65;2.13;;;9.20;99.90;;;;;;5062789;28;20048;-81
2022/04/22 06:50:58;;;;;;;1.75;1.40;;;9.20;99.90;;;;;;5060145;28;20087;-79
2022/04/22 06:53:25;;;;;;;1.17;1.10;;;9.20;99.90;;;;;;5060157;28;20067;-78
2022/04/22 06:55:53;;;;;;;1.50;1.40;;;9.30;99.90;;;;;;5059459;28;20052;-79
2022/04/22 06:58:20;;;;;;;1.63;1.52;;;9.30;99.90;;;;;;5058824;28;20487;-79
2022/04/22 07:00:47;;;;;;;1.40;1.30;;;9.40;99.90;;;;;;5061481;28;20036;-78
2022/04/22 07:03:14;;;;;;;3.83;1.67;;;9.40;99.90;;;;;;5060684;28;20093;-79
2022/04/22 07:05:42;;;;;;;1.38;1.27;;;9.40;99.90;;;;;;5061249;28;20086;-80
2022/04/22 07:08:13;;;;;;;2.20;1.40;;;9.40;99.90;;;;;;5042549;28;20414;-79
2022/04/22 07:10:39;;;;;;;1.75;1.63;;;9.50;99.90;;;;;;5061124;28;20048;-79
2022/04/22 07:13:05;;;;;;;5.65;1.80;;;9.60;99.90;;;;;;5059999;28;20394;-79
2022/04/22 07:15:31;;;;;;;5.28;2.10;;;9.60;99.90;;;;;;5042931;28;20418;-78
2022/04/22 07:17:57;;;;;;;1.42;1.33;;;9.60;99.90;;;;;;5043592;28;20041;-79
2022/04/22 07:20:23;;;;;;;3.35;1.95;;;9.70;99.90;;;;;;5059434;28;20566;-78
2022/04/22 07:22:49;;;;;;;1.55;1.33;;;9.70;99.90;;;;;;5060530;28;20592;-79
2022/04/22 07:25:15;;;;;;;1.30;1.08;;;9.70;99.90;;;;;;5059652;28;20048;-79
2022/04/22 07:27:43;;;;;;;2.72;1.80;;;9.80;99.90;;;;;;5060467;28;20032;-79
2022/04/22 07:30:13;;;;;;;3.05;2.40;;;9.80;99.90;;;;;;5060407;28;20080;-79
2022/04/22 07:32:39;;;;;;;4.95;1.50;;;9.90;99.90;;;;;;5061131;28;20047;-79
2022/04/22 07:35:08;;;;;;;2.03;1.30;;;9.90;99.90;;;;;;5059968;28;20427;-79
2022/04/22 07:37:35;;;;;;;2.38;1.45;;;10.00;99.90;;;;;;5061093;28;20132;-79
2022/04/22 07:40:02;;;;;;;1.77;1.63;;;10.00;99.90;;;;;;5060485;28;20097;-75
2022/04/22 07:42:29;;;;;;;1.52;1.42;;;10.10;99.90;;;;;;5060229;28;20218;-79
2022/04/22 07:47:46;;;;;;;1.48;1.23;;;10.20;99.90;;;;;;5042621;28;20060;-79
2022/04/22 07:50:15;;;;;;;1.15;1.05;;;10.20;99.90;;;;;;5042453;28;20048;-79
2022/04/22 07:52:44;;;;;;;1.13;1.02;;;10.30;99.90;;;;;;5025850;28;20320;-79
2022/04/22 07:55:12;;;;;;;1.27;1.17;;;10.30;99.90;;;;;;5060463;28;20132;-79
2022/04/22 07:57:40;;;;;;;0.80;0.80;;;10.30;99.90;;;;;;5059304;28;20051;-79
2022/04/22 08:00:06;;;;;;;1.98;1.17;;;10.40;99.90;;;;;;5060439;28;20044;-80
2022/04/22 08:02:33;;;;;;;2.85;1.27;;;10.40;99.90;;;;;;5056417;28;20525;-79
2022/04/22 08:04:59;;;;;;;0.98;0.98;;;10.50;99.90;;;;;;5042242;28;20218;-79
2022/04/22 08:07:24;;;;;;;2.67;2.45;;;10.50;99.90;;;;;;5059623;28;20125;-79
2022/04/22 08:09:51;;;;;;;1.70;1.60;;;10.50;99.90;;;;;;5060062;28;20577;-79
2022/04/22 08:12:19;;;;;;;0.82;0.77;;;10.50;99.90;;;;;;5058810;28;20086;-79
2022/04/22 08:14:45;;;;;;;2.38;1.85;;;10.50;99.90;;;;;;5060076;28;20098;-79
2022/04/22 08:17:10;;;;;;;1.83;1.45;;;10.60;99.90;;;;;;5060345;28;20040;-80
2022/04/22 08:19:36;;;;;;;1.25;1.13;;;10.70;99.90;;;;;;5042030;28;20044;-79
2022/04/22 08:22:02;;;;;;;0.95;0.93;;;10.70;99.90;;;;;;5059857;28;20040;-79
2022/04/22 08:24:28;;;;;;;1.92;1.33;;;10.80;99.90;;;;;;5060492;28;20380;-80
2022/04/22 08:26:55;;;;;;;1.38;1.33;;;10.80;99.90;;;;;;5042256;28;20127;-80
2022/04/22 08:29:21;;;;;;;1.80;1.70;;;10.80;99.90;;;;;;5058794;28;20150;-81
2022/04/22 08:31:46;;;;;;;2.45;1.15;;;10.80;99.90;;;;;;5061267;28;20510;-80
2022/04/22 08:34:12;;;;;;;2.70;1.65;;;10.80;99.90;;;;;;5060843;28;20047;-81
2022/04/22 08:36:38;;;;;;;2.45;1.92;;;10.90;99.90;;;;;;5060966;28;20150;-81
2022/04/22 08:39:05;;;;;;;4.15;2.33;;;10.90;99.90;;;;;;5060643;28;20041;-79
2022/04/22 08:41:34;;;;;;;1.45;1.23;;;10.90;99.90;;;;;;5061737;28;20429;-76
2022/04/22 08:44:00;;;;;;;1.80;1.70;;;10.90;99.90;;;;;;5043460;28;20161;-79
2022/04/22 08:51:56;;;;;;;0.60;0.60;;;11.10;99.90;;;;;;5059906;28;20128;-79
2022/04/22 08:54:22;;;;;;;1.85;0.93;;;11.10;99.90;;;;;;5064215;28;20096;-79
2022/04/22 08:56:50;;;;;;;1.67;1.40;;;11.10;99.90;;;;;;5064862;28;20098;-79
2022/04/22 08:59:16;;;;;;;1.33;1.20;;;11.20;99.90;;;;;;5064119;28;20116;-80
2022/04/22 09:01:41;;;;;;;2.03;1.65;;;11.20;99.90;;;;;;5064519;28;20086;-79
2022/04/22 09:04:07;;;;;;;1.83;1.70;;;11.20;99.90;;;;;;5064147;28;20032;-79
2022/04/22 09:06:33;;;;;;;1.85;1.27;;;11.20;99.90;;;;;;5064753;28;20395;-79
2022/04/22 09:08:59;;;;;;;2.88;1.83;;;11.30;99.90;;;;;;5064631;28;20059;-79
2022/04/22 09:11:25;;;;;;;1.38;1.13;;;11.30;99.90;;;;;;5046188;28;20403;-79
2022/04/22 09:13:51;;;;;;;5.05;2.03;;;11.40;99.90;;;;;;5063895;28;20087;-79
2022/04/22 09:16:20;;;;;;;2.22;1.45;;;11.40;99.90;;;;;;5063872;28;20102;-79
2022/04/22 09:18:46;;;;;;;3.17;1.55;;;11.40;99.90;;;;;;5064599;28;20085;-79
2022/04/22 09:21:15;;;;;;;8.35;1.85;;;11.50;99.90;;;;;;5063616;28;20491;-79
2022/04/22 09:23:41;;;;;;;1.73;0.98;;;11.50;99.90;;;;;;5064365;28;20692;-79
2022/04/22 09:26:21;;;;;;;1.60;1.50;;;11.50;99.90;;;;;;5046168;28;20135;-79
2022/04/22 09:29:01;;;;;;;1.67;1.58;;;11.60;99.90;;;;;;5063308;28;20072;-79
2022/04/22 09:31:28;;;;;;;1.52;1.42;;;11.60;99.90;;;;;;5026766;28;20044;-79
2022/04/22 09:33:54;;;;;;;1.83;1.38;;;11.70;99.90;;;;;;5044008;28;20326;-79
2022/04/22 09:45:04;;;;;;;3.20;1.65;;;11.80;99.90;;;;;;5043667;28;20057;-87
2022/04/22 09:47:32;;;;;;;1.67;1.58;;;11.90;99.90;;;;;;5061176;28;20067;-85
2022/04/22 09:50:03;;;;;;;1.75;1.50;;;11.90;99.90;;;;;;5045511;28;20064;-85
2022/04/22 09:52:34;;;;;;;1.33;1.23;;;12.00;99.90;;;;;;5062840;28;20036;-90
2022/04/22 09:55:08;;;;;;;1.52;1.42;;;12.00;99.90;;;;;;5045411;28;20111;-87
2022/04/22 09:57:55;;;;;;;1.38;1.27;;;12.10;99.90;;;;;;5043738;28;20036;-86
2022/04/22 10:00:25;;;;;;;0.95;0.90;;;12.10;99.90;;;;;;5062367;28;20128;-84
2022/04/22 10:02:53;;;;;;;1.92;1.30;;;12.10;99.90;;;;;;5061976;28;20112;-83
2022/04/22 10:05:23;;;;;;;1.77;1.67;;;12.10;99.90;;;;;;5062149;28;20044;-84
2022/04/22 10:07:56;;;;;;;3.58;1.65;;;12.20;99.90;;;;;;5062175;28;20304;-84
2022/04/22 10:10:38;;;;;;;1.55;1.30;;;12.20;99.90;;;;;;5044180;28;20663;-84
2022/04/22 10:13:04;;;;;;;6.20;1.60;;;12.30;99.90;;;;;;5035396;28;20040;-84
2022/04/22 10:15:34;;;;;;;1.88;1.77;;;12.30;99.90;;;;;;5058812;28;20345;-84
2022/04/22 10:18:00;;;;;;;4.13;2.03;;;12.30;99.90;;;;;;5042900;28;20041;-84
2022/04/22 10:20:27;;;;;;;2.35;1.55;;;12.30;99.90;;;;;;5038059;28;20067;-84
2022/04/22 10:22:53;;;;;;;1.77;1.67;;;12.30;99.90;;;;;;5062227;28;20079;-85
2022/04/22 10:25:19;;;;;;;1.58;1.48;;;12.30;99.90;;;;;;5061866;28;20068;-85
2022/04/22 10:27:46;;;;;;;2.65;1.90;;;12.40;99.90;;;;;;5043453;28;20076;-83
2022/04/22 10:30:14;;;;;;;6.60;2.30;;;12.40;99.90;;;;;;5043613;28;20568;-84
2022/04/22 10:32:41;;;;;;;3.30;1.83;;;12.40;99.90;;;;;;5062179;28;20465;-88
2022/04/22 10:35:08;;;;;;;3.33;1.95;;;12.40;99.90;;;;;;5062110;28;20478;-83
2022/04/22 10:37:38;;;;;;;1.63;1.52;;;12.50;99.90;;;;;;5045353;28;20047;-84
2022/04/22 10:40:04;;;;;;;2.63;2.38;;;12.50;99.90;;;;;;5044717;28;20490;-84
2022/04/22 10:42:35;;;;;;;2.28;2.17;;;12.50;99.90;;;;;;5061902;28;20037;-84
2022/04/22 10:47:55;;;;;;;16.92;2.75;;;12.50;99.90;;;;;;5062072;28;20299;-84
2022/04/22 10:50:37;;;;;;;5.32;2.40;;;12.50;99.90;;;;;;5062327;28;20048;-84
2022/04/22 10:53:23;;;;;;;3.50;1.33;;;12.50;99.90;;;;;;5062519;28;20055;-85
2022/04/22 10:55:49;;;;;;;3.58;1.15;;;12.50;99.90;;;;;;5062753;28;20068;-84
2022/04/22 10:58:17;;;;;;;5.60;2.78;;;12.50;99.90;;;;;;5042243;28;20520;-85
2022/04/22 11:00:43;;;;;;;2.83;1.77;;;12.50;99.90;;;;;;5061661;28;20059;-85
2022/04/22 11:03:15;;;;;;;3.53;2.17;;;12.60;99.90;;;;;;5060590;28;20040;-84
2022/04/22 11:06:00;;;;;;;1.70;1.52;;;12.60;99.90;;;;;;5061494;28;20397;-84
2022/04/22 11:08:32;;;;;;;3.00;1.88;;;12.60;99.90;;;;;;5043057;28;20405;-84
2022/04/22 11:11:07;;;;;;;5.68;1.73;;;12.60;99.90;;;;;;5061845;28;20041;-85
2022/04/22 11:13:38;;;;;;;5.28;2.28;;;12.60;99.90;;;;;;5058963;28;20045;-85
2022/04/22 11:16:12;;;;;;;1.90;1.50;;;12.60;99.90;;;;;;5061623;28;20109;-84
2022/04/22 11:18:42;;;;;;;3.50;2.05;;;12.60;99.90;;;;;;5061026;28;20462;-84
2022/04/22 11:21:36;;;;;;;8.57;3.10;;;12.60;99.90;;;;;;5060426;28;20063;-83
2022/04/22 11:24:09;;;;;;;3.10;2.25;;;12.60;99.90;;;;;;5061015;28;20123;-82
2022/04/22 11:26:35;;;;;;;3.00;2.40;;;12.60;99.90;;;;;;5060231;28;20453;-84
2022/04/22 11:29:06;;;;;;;2.47;1.67;;;12.70;99.90;;;;;;5060972;28;20098;-84
2022/04/22 11:31:34;;;;;;;4.85;2.17;;;12.70;99.90;;;;;;5060359;28;20041;-84
2022/04/22 11:34:07;;;;;;;5.60;2.83;;;12.70;99.90;;;;;;5061239;28;20028;-85
2022/04/22 11:36:48;;;;;;;4.43;2.72;;;12.70;99.90;;;;;;5023731;28;20052;-87
2022/04/22 11:39:22;;;;;;;1.85;1.70;;;12.70;99.90;;;;;;5010380;28;20079;-87
2022/04/22 11:41:57;;;;;;;3.08;1.80;;;12.80;99.90;;;;;;5043630;28;20489;-89
2022/04/22 11:44:24;;;;;;;1.65;1.55;;;12.80;99.90;;;;;;5063922;28;20084;-89
2022/04/22 11:46:53;;;;;;;4.35;2.45;;;12.80;99.90;;;;;;5062941;28;20070;-81
2022/04/22 11:49:28;;;;;;;4.00;1.90;;;12.80;99.90;;;;;;5040409;28;20072;-78
2022/04/22 11:51:54;;;;;;;6.82;2.47;;;12.90;99.90;;;;;;5041136;28;20045;-78
2022/04/22 11:54:24;;;;;;;3.35;2.47;;;12.90;99.90;;;;;;5023410;28;20045;-78
2022/04/22 11:56:50;;;;;;;3.13;2.35;;;13.00;99.90;;;;;;5040663;28;20044;-78
2022/04/22 11:59:19;;;;;;;4.50;2.65;;;13.00;99.90;;;;;;5041068;28;20098;-77
2022/04/22 12:10:03;;;;;;;4.07;2.20;;;13.10;99.90;;;;;;5041231;28;20052;-77
2022/04/22 12:12:31;;;;;;;3.17;2.47;;;13.10;99.90;;;;;;5023258;28;20403;-78
2022/04/22 12:15:01;;;;;;;2.90;2.50;;;13.20;99.90;;;;;;5023608;28;20487;-77
2022/04/22 12:17:27;;;;;;;4.13;2.47;;;13.20;99.90;;;;;;5039800;28;20045;-78
2022/04/22 12:19:53;;;;;;;4.22;2.65;;;13.20;99.90;;;;;;5040756;28;20044;-77
2022/04/22 12:22:20;;;;;;;3.55;1.85;;;13.20;99.90;;;;;;5040575;28;20430;-78
2022/04/22 12:25:14;;;;;;;3.03;2.25;;;13.20;99.90;;;;;;5040648;28;20175;-77
2022/04/22 12:27:42;;;;;;;2.58;2.33;;;13.30;99.90;;;;;;5030567;28;20101;-78
2022/04/22 12:30:10;;;;;;;5.00;3.13;;;13.30;99.90;;;;;;5055523;28;20484;-78
2022/04/22 12:32:37;;;;;;;6.72;3.08;;;13.40;99.90;;;;;;5064821;28;20037;-78
2022/04/22 12:35:14;;;;;;;3.10;2.72;;;13.40;99.90;;;;;;5063250;28;20052;-77
2022/04/22 12:37:45;;;;;;;8.23;2.95;;;13.40;99.90;;;;;;5063802;28;20063;-78
2022/04/22 12:40:12;;;;;;;2.30;2.10;;;13.40;99.90;;;;;;5064702;28;20039;-77
2022/04/22 12:42:39;;;;;;;3.20;2.95;;;13.50;99.90;;;;;;5064314;28;20033;-76
2022/04/22 12:53:48;;;;;;;6.70;3.45;;;13.60;99.90;;;;;;5046770;28;20049;-83
2022/04/22 12:56:14;;;;;;;2.95;2.45;;;13.60;99.90;;;;;;5064284;28;20045;-83
2022/04/22 12:59:12;;;;;;;3.88;2.10;;;13.70;99.90;;;;;;5063284;28;20042;-84
2022/04/22 13:01:39;;;;;;;18.02;3.17;;;13.70;99.90;;;;;;5012509;28;20052;-83
2022/04/22 13:04:06;;;;;;;5.38;2.97;;;13.80;99.90;;;;;;5045192;28;20147;-84
2022/04/22 13:06:42;;;;;;;3.53;3.13;;;13.80;99.90;;;;;;5063078;28;20032;-84
2022/04/22 13:09:10;;;;;;;4.95;2.58;;;13.80;99.90;;;;;;5063138;28;20056;-84
2022/04/22 13:11:36;;;;;;;9.98;3.70;;;13.90;99.90;;;;;;5062339;28;20120;-84
2022/04/22 13:14:03;;;;;;;9.07;3.75;;;13.90;99.90;;;;;;5063340;28;20162;-84
2022/04/22 13:16:29;;;;;;;5.80;3.00;;;13.90;99.90;;;;;;5063633;28;20040;-83
2022/04/22 13:18:55;;;;;;;8.68;3.42;;;13.90;99.90;;;;;;5044859;28;20098;-84
2022/04/22 13:21:21;;;;;;;2.45;1.98;;;13.90;99.90;;;;;;5062896;28;20521;-84
2022/04/22 13:23:47;;;;;;;2.83;2.28;;;13.90;99.90;;;;;;5063564;28;20041;-84
2022/04/22 13:26:12;;;;;;;4.13;2.97;;;13.90;99.90;;;;;;5061421;28;20696;-85
2022/04/22 13:28:38;;;;;;;4.10;3.17;;;14.00;99.90;;;;;;5063443;28;20043;-84
2022/04/22 13:31:04;;;;;;;4.88;2.53;;;14.00;99.90;;;;;;5044560;28;20059;-84
2022/04/22 13:33:33;;;;;;;4.38;2.67;;;14.00;99.90;;;;;;5063315;28;20066;-84
2022/04/22 13:36:02;;;;;;;5.90;2.05;;;14.10;99.90;;;;;;5062862;28;20101;-84
2022/04/22 13:38:29;;;;;;;3.30;3.00;;;14.10;99.90;;;;;;5028600;28;20090;-83
2022/04/22 13:40:54;;;;;;;7.00;2.95;;;14.10;99.90;;;;;;5062739;28;20040;-84
2022/04/22 13:43:20;;;;;;;5.93;2.63;;;14.10;99.90;;;;;;5061589;28;20075;-84
2022/04/22 13:53:58;;;;;;;3.38;2.45;;;14.20;99.90;;;;;;5063526;28;20048;-84
2022/04/22 13:56:24;;;;;;;3.13;2.55;;;14.20;99.90;;;;;;5061505;28;20041;-84
2022/04/22 13:58:49;;;;;;;3.30;2.42;;;14.20;99.90;;;;;;5061136;28;20037;-84
2022/04/22 14:01:15;;;;;;;4.40;2.85;;;14.20;99.90;;;;;;5062486;28;20554;-84
2022/04/22 14:03:40;;;;;;;3.08;2.03;;;14.20;99.90;;;;;;5062161;28;20396;-84
2022/04/22 14:06:06;;;;;;;3.33;3.00;;;14.30;99.90;;;;;;5062037;28;20113;-84
2022/04/22 14:08:32;;;;;;;3.40;3.05;;;14.30;99.90;;;;;;5062057;28;20513;-84
2022/04/22 14:10:57;;;;;;;7.00;3.53;;;14.40;99.90;;;;;;5063035;28;20048;-87
2022/04/22 14:13:23;;;;;;;2.72;2.53;;;14.40;99.90;;;;;;5060226;28;20502;-85
2022/04/22 14:15:48;;;;;;;7.95;2.50;;;14.40;99.90;;;;;;5063103;28;20044;-86
2022/04/22 14:18:14;;;;;;;7.40;2.60;;;14.50;99.90;;;;;;5060872;28;20036;-89